sensor_id;sensor_type;location;lat;lon;timestamp;P1;durP1;ratioP1;P2;durP2;ratioP2
23680;SDS011;62915;50.832;4.462;2023-05-10T00:02:18;14.98;;;8.20;;
23680;SDS011;62915;50.832;4.462;2023-05-10T00:04:44;17.02;;;8.65;;
23680;SDS011;62915;50.832;4.462;2023-05-10T00:07:09;16.30;;;9.05;;
23680;SDS011;62915;50.832;4.462;2023-05-10T00:09:35;18.42;;;8.75;;
23680;SDS011;62915;50.832;4.462;2023-05-10T00:12:01;18.00;;;9.57;;
23680;SDS011;62915;50.832;4.462;2023-05-10T00:14:26;15.10;;;9.23;;
23680;SDS011;62915;50.832;4.462;2023-05-10T00:16:52;12.75;;;8.57;;
23680;SDS011;62915;50.832;4.462;2023-05-10T00:19:18;14.05;;;8.75;;
23680;SDS011;62915;50.832;4.462;2023-05-10T00:21:46;17.17;;;8.80;;
23680;SDS011;62915;50.832;4.462;2023-05-10T00:24:12;22.33;;;9.48;;
23680;SDS011;62915;50.832;4.462;2023-05-10T00:26:40;17.45;;;8.73;;
23680;SDS011;62915;50.832;4.462;2023-05-10T00:29:07;18.52;;;8.88;;
23680;SDS011;62915;50.832;4.462;2023-05-10T00:31:33;15.90;;;9.23;;
23680;SDS011;62915;50.832;4.462;2023-05-10T00:33:58;15.95;;;9.63;;
23680;SDS011;62915;50.832;4.462;2023-05-10T00:36:24;19.13;;;10.07;;
23680;SDS011;62915;50.832;4.462;2023-05-10T00:38:50;17.08;;;10.38;;
23680;SDS011;62915;50.832;4.462;2023-05-10T00:41:15;17.70;;;10.40;;
23680;SDS011;62915;50.832;4.462;2023-05-10T00:43:41;20.33;;;10.93;;
23680;SDS011;62915;50.832;4.462;2023-05-10T00:46:10;17.08;;;10.55;;
23680;SDS011;62915;50.832;4.462;2023-05-10T00:48:36;19.33;;;11.27;;
23680;SDS011;62915;50.832;4.462;2023-05-10T00:51:09;18.20;;;10.43;;
23680;SDS011;62915;50.832;4.462;2023-05-10T00:53:35;16.10;;;9.73;;
23680;SDS011;62915;50.832;4.462;2023-05-10T00:56:04;20.90;;;10.63;;
23680;SDS011;62915;50.832;4.462;2023-05-10T00:58:32;20.58;;;11.32;;
23680;SDS011;62915;50.832;4.462;2023-05-10T01:00:58;18.42;;;10.93;;
23680;SDS011;62915;50.832;4.462;2023-05-10T01:03:27;23.67;;;10.85;;
23680;SDS011;62915;50.832;4.462;2023-05-10T01:05:56;20.42;;;11.45;;
23680;SDS011;62915;50.832;4.462;2023-05-10T01:08:22;19.33;;;11.18;;
23680;SDS011;62915;50.832;4.462;2023-05-10T01:10:47;20.58;;;11.95;;
23680;SDS011;62915;50.832;4.462;2023-05-10T01:13:16;21.92;;;11.95;;
23680;SDS011;62915;50.832;4.462;2023-05-10T01:15:53;22.80;;;11.70;;
23680;SDS011;62915;50.832;4.462;2023-05-10T01:18:19;20.65;;;11.70;;
23680;SDS011;62915;50.832;4.462;2023-05-10T01:20:46;21.83;;;12.20;;
23680;SDS011;62915;50.832;4.462;2023-05-10T01:34:17;20.60;;;12.00;;
23680;SDS011;62915;50.832;4.462;2023-05-10T01:36:58;21.77;;;13.15;;
23680;SDS011;62915;50.832;4.462;2023-05-10T01:39:36;18.05;;;12.88;;
23680;SDS011;62915;50.832;4.462;2023-05-10T01:42:16;25.25;;;13.52;;
23680;SDS011;62915;50.832;4.462;2023-05-10T01:44:49;21.00;;;12.88;;
23680;SDS011;62915;50.832;4.462;2023-05-10T01:47:32;26.88;;;14.25;;
23680;SDS011;62915;50.832;4.462;2023-05-10T01:50:04;20.80;;;13.50;;
23680;SDS011;62915;50.832;4.462;2023-05-10T01:52:38;23.67;;;14.63;;
23680;SDS011;62915;50.832;4.462;2023-05-10T01:55:09;30.65;;;13.57;;
23680;SDS011;62915;50.832;4.462;2023-05-10T01:57:40;23.85;;;13.40;;
23680;SDS011;62915;50.832;4.462;2023-05-10T02:00:08;21.23;;;13.77;;
23680;SDS011;62915;50.832;4.462;2023-05-10T02:02:36;24.20;;;13.85;;
23680;SDS011;62915;50.832;4.462;2023-05-10T02:05:05;22.20;;;13.63;;
23680;SDS011;62915;50.832;4.462;2023-05-10T02:07:33;24.05;;;13.82;;
23680;SDS011;62915;50.832;4.462;2023-05-10T02:10:04;23.85;;;13.60;;
23680;SDS011;62915;50.832;4.462;2023-05-10T02:12:43;22.80;;;13.80;;
23680;SDS011;62915;50.832;4.462;2023-05-10T02:15:12;20.88;;;12.68;;
23680;SDS011;62915;50.832;4.462;2023-05-10T02:17:43;24.73;;;14.00;;
23680;SDS011;62915;50.832;4.462;2023-05-10T02:20:10;21.73;;;14.13;;
23680;SDS011;62915;50.832;4.462;2023-05-10T02:22:37;22.98;;;14.30;;
23680;SDS011;62915;50.832;4.462;2023-05-10T02:25:05;25.35;;;14.55;;
23680;SDS011;62915;50.832;4.462;2023-05-10T02:27:34;25.27;;;12.75;;
23680;SDS011;62915;50.832;4.462;2023-05-10T02:30:01;23.02;;;14.48;;
23680;SDS011;62915;50.832;4.462;2023-05-10T02:32:28;23.63;;;13.70;;
23680;SDS011;62915;50.832;4.462;2023-05-10T02:34:55;18.70;;;12.43;;
23680;SDS011;62915;50.832;4.462;2023-05-10T02:37:22;21.88;;;13.55;;
23680;SDS011;62915;50.832;4.462;2023-05-10T02:39:49;23.80;;;13.15;;
23680;SDS011;62915;50.832;4.462;2023-05-10T02:42:16;22.90;;;13.02;;
23680;SDS011;62915;50.832;4.462;2023-05-10T02:44:45;24.17;;;13.32;;
23680;SDS011;62915;50.832;4.462;2023-05-10T02:47:13;20.98;;;12.85;;
23680;SDS011;62915;50.832;4.462;2023-05-10T02:49:39;19.75;;;12.25;;
23680;SDS011;62915;50.832;4.462;2023-05-10T02:52:05;18.88;;;12.07;;
23680;SDS011;62915;50.832;4.462;2023-05-10T02:54:35;26.20;;;12.05;;
23680;SDS011;62915;50.832;4.462;2023-05-10T02:57:08;20.70;;;12.10;;
23680;SDS011;62915;50.832;4.462;2023-05-10T02:59:40;21.92;;;11.48;;
23680;SDS011;62915;50.832;4.462;2023-05-10T03:02:08;20.33;;;12.00;;
23680;SDS011;62915;50.832;4.462;2023-05-10T03:04:35;21.73;;;11.82;;
23680;SDS011;62915;50.832;4.462;2023-05-10T03:07:01;16.33;;;11.57;;
23680;SDS011;62915;50.832;4.462;2023-05-10T03:09:27;25.38;;;10.38;;
23680;SDS011;62915;50.832;4.462;2023-05-10T03:20:09;25.50;;;12.90;;
23680;SDS011;62915;50.832;4.462;2023-05-10T03:22:44;19.88;;;12.45;;
23680;SDS011;62915;50.832;4.462;2023-05-10T03:25:12;26.70;;;12.90;;
23680;SDS011;62915;50.832;4.462;2023-05-10T03:27:41;22.08;;;12.88;;
23680;SDS011;62915;50.832;4.462;2023-05-10T03:30:12;20.92;;;11.18;;
23680;SDS011;62915;50.832;4.462;2023-05-10T03:32:38;20.15;;;11.77;;
23680;SDS011;62915;50.832;4.462;2023-05-10T03:35:11;17.77;;;11.30;;
23680;SDS011;62915;50.832;4.462;2023-05-10T03:37:39;23.33;;;11.43;;
23680;SDS011;62915;50.832;4.462;2023-05-10T03:40:07;17.85;;;10.60;;
23680;SDS011;62915;50.832;4.462;2023-05-10T03:42:37;19.65;;;11.93;;
23680;SDS011;62915;50.832;4.462;2023-05-10T03:45:03;19.73;;;10.93;;
23680;SDS011;62915;50.832;4.462;2023-05-10T03:47:29;19.33;;;12.50;;
23680;SDS011;62915;50.832;4.462;2023-05-10T03:49:55;21.42;;;12.00;;
23680;SDS011;62915;50.832;4.462;2023-05-10T03:52:20;19.95;;;12.68;;
23680;SDS011;62915;50.832;4.462;2023-05-10T03:54:46;21.77;;;13.27;;
23680;SDS011;62915;50.832;4.462;2023-05-10T03:57:12;21.90;;;13.73;;
23680;SDS011;62915;50.832;4.462;2023-05-10T03:59:37;21.95;;;13.93;;
23680;SDS011;62915;50.832;4.462;2023-05-10T04:02:03;24.13;;;13.95;;
23680;SDS011;62915;50.832;4.462;2023-05-10T04:04:29;26.63;;;15.48;;
23680;SDS011;62915;50.832;4.462;2023-05-10T04:06:54;28.58;;;15.02;;
23680;SDS011;62915;50.832;4.462;2023-05-10T04:09:20;29.92;;;16.15;;
23680;SDS011;62915;50.832;4.462;2023-05-10T04:11:50;25.98;;;14.77;;
23680;SDS011;62915;50.832;4.462;2023-05-10T04:14:16;26.17;;;15.25;;
23680;SDS011;62915;50.832;4.462;2023-05-10T04:16:42;29.55;;;15.30;;
23680;SDS011;62915;50.832;4.462;2023-05-10T04:19:08;26.00;;;15.65;;
23680;SDS011;62915;50.832;4.462;2023-05-10T04:21:33;29.15;;;16.83;;
23680;SDS011;62915;50.832;4.462;2023-05-10T04:23:59;26.25;;;16.27;;
23680;SDS011;62915;50.832;4.462;2023-05-10T04:26:25;25.02;;;15.50;;
23680;SDS011;62915;50.832;4.462;2023-05-10T04:28:50;27.00;;;16.48;;
23680;SDS011;62915;50.832;4.462;2023-05-10T04:31:16;33.30;;;17.30;;
23680;SDS011;62915;50.832;4.462;2023-05-10T04:33:42;29.48;;;17.27;;
23680;SDS011;62915;50.832;4.462;2023-05-10T04:36:08;29.88;;;16.90;;
23680;SDS011;62915;50.832;4.462;2023-05-10T04:38:33;34.72;;;16.58;;
23680;SDS011;62915;50.832;4.462;2023-05-10T04:41:09;29.58;;;17.65;;
23680;SDS011;62915;50.832;4.462;2023-05-10T04:43:36;27.00;;;16.05;;
23680;SDS011;62915;50.832;4.462;2023-05-10T04:46:02;31.85;;;17.17;;
23680;SDS011;62915;50.832;4.462;2023-05-10T04:48:29;30.58;;;16.73;;
23680;SDS011;62915;50.832;4.462;2023-05-10T04:50:54;29.23;;;17.48;;
23680;SDS011;62915;50.832;4.462;2023-05-10T04:53:22;29.88;;;18.10;;
23680;SDS011;62915;50.832;4.462;2023-05-10T04:55:48;34.38;;;18.83;;
23680;SDS011;62915;50.832;4.462;2023-05-10T04:58:14;30.23;;;18.88;;
23680;SDS011;62915;50.832;4.462;2023-05-10T05:00:40;27.10;;;19.02;;
23680;SDS011;62915;50.832;4.462;2023-05-10T05:03:06;32.85;;;19.38;;
23680;SDS011;62915;50.832;4.462;2023-05-10T05:05:32;31.23;;;19.35;;
23680;SDS011;62915;50.832;4.462;2023-05-10T05:08:00;35.67;;;19.45;;
23680;SDS011;62915;50.832;4.462;2023-05-10T05:10:26;30.45;;;19.20;;
23680;SDS011;62915;50.832;4.462;2023-05-10T05:12:51;38.15;;;20.20;;
23680;SDS011;62915;50.832;4.462;2023-05-10T05:15:17;32.83;;;19.55;;
23680;SDS011;62915;50.832;4.462;2023-05-10T05:17:43;37.72;;;20.60;;
23680;SDS011;62915;50.832;4.462;2023-05-10T05:20:09;34.72;;;19.35;;
23680;SDS011;62915;50.832;4.462;2023-05-10T05:22:35;31.92;;;19.00;;
23680;SDS011;62915;50.832;4.462;2023-05-10T05:25:01;35.03;;;20.98;;
23680;SDS011;62915;50.832;4.462;2023-05-10T05:27:28;34.47;;;21.02;;
23680;SDS011;62915;50.832;4.462;2023-05-10T05:29:57;35.70;;;21.60;;
23680;SDS011;62915;50.832;4.462;2023-05-10T05:32:23;35.15;;;21.48;;
23680;SDS011;62915;50.832;4.462;2023-05-10T05:34:50;36.47;;;21.52;;
23680;SDS011;62915;50.832;4.462;2023-05-10T05:37:19;32.15;;;20.50;;
23680;SDS011;62915;50.832;4.462;2023-05-10T05:39:49;32.50;;;20.33;;
23680;SDS011;62915;50.832;4.462;2023-05-10T05:42:15;24.85;;;16.35;;
23680;SDS011;62915;50.832;4.462;2023-05-10T05:44:42;20.08;;;12.20;;
23680;SDS011;62915;50.832;4.462;2023-05-10T05:47:08;21.45;;;12.48;;
23680;SDS011;62915;50.832;4.462;2023-05-10T05:49:35;17.52;;;12.20;;
23680;SDS011;62915;50.832;4.462;2023-05-10T05:52:01;13.95;;;10.40;;
23680;SDS011;62915;50.832;4.462;2023-05-10T05:54:28;17.35;;;11.75;;
23680;SDS011;62915;50.832;4.462;2023-05-10T05:56:55;21.33;;;11.52;;
23680;SDS011;62915;50.832;4.462;2023-05-10T05:59:24;16.17;;;10.77;;
23680;SDS011;62915;50.832;4.462;2023-05-10T06:01:52;17.75;;;11.98;;
23680;SDS011;62915;50.832;4.462;2023-05-10T06:04:18;20.90;;;11.35;;
23680;SDS011;62915;50.832;4.462;2023-05-10T06:06:44;14.80;;;10.90;;
23680;SDS011;62915;50.832;4.462;2023-05-10T06:09:10;18.13;;;10.63;;
23680;SDS011;62915;50.832;4.462;2023-05-10T06:11:36;14.70;;;10.20;;
23680;SDS011;62915;50.832;4.462;2023-05-10T06:14:03;12.10;;;8.77;;
23680;SDS011;62915;50.832;4.462;2023-05-10T06:16:29;12.95;;;8.00;;
23680;SDS011;62915;50.832;4.462;2023-05-10T06:18:56;10.80;;;7.15;;
23680;SDS011;62915;50.832;4.462;2023-05-10T06:21:21;9.70;;;6.32;;
23680;SDS011;62915;50.832;4.462;2023-05-10T06:23:47;11.25;;;6.60;;
23680;SDS011;62915;50.832;4.462;2023-05-10T06:26:13;8.77;;;6.43;;
23680;SDS011;62915;50.832;4.462;2023-05-10T06:28:39;6.72;;;5.40;;
23680;SDS011;62915;50.832;4.462;2023-05-10T06:31:05;9.82;;;5.72;;
23680;SDS011;62915;50.832;4.462;2023-05-10T06:33:32;8.63;;;5.63;;
23680;SDS011;62915;50.832;4.462;2023-05-10T06:35:57;8.38;;;5.95;;
23680;SDS011;62915;50.832;4.462;2023-05-10T06:38:23;11.55;;;6.22;;
23680;SDS011;62915;50.832;4.462;2023-05-10T06:40:49;10.70;;;5.88;;
23680;SDS011;62915;50.832;4.462;2023-05-10T06:43:15;8.07;;;5.28;;
23680;SDS011;62915;50.832;4.462;2023-05-10T06:45:41;10.35;;;6.00;;
23680;SDS011;62915;50.832;4.462;2023-05-10T06:48:07;12.52;;;5.82;;
23680;SDS011;62915;50.832;4.462;2023-05-10T06:50:33;11.02;;;6.90;;
23680;SDS011;62915;50.832;4.462;2023-05-10T06:52:59;8.20;;;5.45;;
23680;SDS011;62915;50.832;4.462;2023-05-10T06:55:26;8.35;;;5.55;;
23680;SDS011;62915;50.832;4.462;2023-05-10T06:57:52;13.77;;;5.97;;
23680;SDS011;62915;50.832;4.462;2023-05-10T07:00:18;8.55;;;5.63;;
23680;SDS011;62915;50.832;4.462;2023-05-10T07:02:44;9.00;;;5.03;;
23680;SDS011;62915;50.832;4.462;2023-05-10T07:05:10;6.97;;;4.22;;
23680;SDS011;62915;50.832;4.462;2023-05-10T07:07:36;5.22;;;4.28;;
23680;SDS011;62915;50.832;4.462;2023-05-10T07:10:02;7.18;;;4.32;;
23680;SDS011;62915;50.832;4.462;2023-05-10T07:12:28;7.05;;;5.25;;
23680;SDS011;62915;50.832;4.462;2023-05-10T07:14:54;9.63;;;5.07;;
23680;SDS011;62915;50.832;4.462;2023-05-10T07:17:20;12.27;;;5.57;;
23680;SDS011;62915;50.832;4.462;2023-05-10T07:19:45;10.23;;;5.90;;
23680;SDS011;62915;50.832;4.462;2023-05-10T07:22:11;9.10;;;6.40;;
23680;SDS011;62915;50.832;4.462;2023-05-10T07:24:37;10.50;;;7.30;;
23680;SDS011;62915;50.832;4.462;2023-05-10T07:27:03;12.18;;;7.90;;
23680;SDS011;62915;50.832;4.462;2023-05-10T07:29:29;14.77;;;7.50;;
23680;SDS011;62915;50.832;4.462;2023-05-10T07:31:55;13.13;;;7.75;;
23680;SDS011;62915;50.832;4.462;2023-05-10T07:34:21;16.90;;;8.18;;
23680;SDS011;62915;50.832;4.462;2023-05-10T07:36:47;15.13;;;8.90;;
23680;SDS011;62915;50.832;4.462;2023-05-10T07:39:12;15.90;;;8.27;;
23680;SDS011;62915;50.832;4.462;2023-05-10T07:41:38;21.73;;;8.32;;
23680;SDS011;62915;50.832;4.462;2023-05-10T07:44:04;12.52;;;8.25;;
23680;SDS011;62915;50.832;4.462;2023-05-10T07:46:31;14.38;;;9.02;;
23680;SDS011;62915;50.832;4.462;2023-05-10T07:48:56;20.38;;;10.23;;
23680;SDS011;62915;50.832;4.462;2023-05-10T07:51:22;16.48;;;9.45;;
23680;SDS011;62915;50.832;4.462;2023-05-10T07:53:48;16.73;;;9.73;;
23680;SDS011;62915;50.832;4.462;2023-05-10T07:56:35;14.13;;;9.18;;
23680;SDS011;62915;50.832;4.462;2023-05-10T07:59:00;15.75;;;10.15;;
23680;SDS011;62915;50.832;4.462;2023-05-10T08:01:33;15.98;;;9.60;;
23680;SDS011;62915;50.832;4.462;2023-05-10T08:03:59;18.23;;;9.23;;
23680;SDS011;62915;50.832;4.462;2023-05-10T08:06:26;18.27;;;9.65;;
23680;SDS011;62915;50.832;4.462;2023-05-10T08:08:53;18.35;;;9.00;;
23680;SDS011;62915;50.832;4.462;2023-05-10T08:11:19;15.48;;;8.65;;
23680;SDS011;62915;50.832;4.462;2023-05-10T08:13:45;12.80;;;8.85;;
23680;SDS011;62915;50.832;4.462;2023-05-10T08:16:12;13.98;;;8.00;;
23680;SDS011;62915;50.832;4.462;2023-05-10T08:18:38;13.63;;;8.27;;
23680;SDS011;62915;50.832;4.462;2023-05-10T08:21:05;12.68;;;7.72;;
23680;SDS011;62915;50.832;4.462;2023-05-10T08:23:31;14.43;;;7.90;;
23680;SDS011;62915;50.832;4.462;2023-05-10T08:25:57;14.10;;;7.63;;
23680;SDS011;62915;50.832;4.462;2023-05-10T08:28:23;12.85;;;7.85;;
23680;SDS011;62915;50.832;4.462;2023-05-10T08:30:49;12.93;;;7.28;;
23680;SDS011;62915;50.832;4.462;2023-05-10T08:33:15;15.75;;;7.43;;
23680;SDS011;62915;50.832;4.462;2023-05-10T08:35:42;11.27;;;7.35;;
23680;SDS011;62915;50.832;4.462;2023-05-10T08:38:08;11.13;;;7.10;;
23680;SDS011;62915;50.832;4.462;2023-05-10T08:40:34;12.05;;;7.07;;
23680;SDS011;62915;50.832;4.462;2023-05-10T08:45:36;9.15;;;6.10;;
23680;SDS011;62915;50.832;4.462;2023-05-10T08:48:06;11.30;;;6.05;;
23680;SDS011;62915;50.832;4.462;2023-05-10T08:50:35;9.20;;;5.63;;
23680;SDS011;62915;50.832;4.462;2023-05-10T08:53:03;8.95;;;5.97;;
23680;SDS011;62915;50.832;4.462;2023-05-10T08:55:32;8.77;;;5.85;;
23680;SDS011;62915;50.832;4.462;2023-05-10T08:58:05;9.70;;;6.80;;
23680;SDS011;62915;50.832;4.462;2023-05-10T09:00:31;11.32;;;6.05;;
23680;SDS011;62915;50.832;4.462;2023-05-10T09:02:58;8.23;;;5.60;;
23680;SDS011;62915;50.832;4.462;2023-05-10T09:05:24;11.10;;;6.13;;
23680;SDS011;62915;50.832;4.462;2023-05-10T09:07:50;10.40;;;5.38;;
23680;SDS011;62915;50.832;4.462;2023-05-10T09:10:17;8.80;;;5.70;;
23680;SDS011;62915;50.832;4.462;2023-05-10T09:12:43;9.02;;;5.38;;
23680;SDS011;62915;50.832;4.462;2023-05-10T09:15:10;9.20;;;5.25;;
23680;SDS011;62915;50.832;4.462;2023-05-10T09:17:37;13.93;;;5.85;;
23680;SDS011;62915;50.832;4.462;2023-05-10T09:20:05;10.77;;;6.10;;
23680;SDS011;62915;50.832;4.462;2023-05-10T09:22:32;12.10;;;6.38;;
23680;SDS011;62915;50.832;4.462;2023-05-10T09:27:40;11.48;;;6.55;;
23680;SDS011;62915;50.832;4.462;2023-05-10T09:30:09;10.55;;;6.82;;
23680;SDS011;62915;50.832;4.462;2023-05-10T09:32:38;10.32;;;5.95;;
23680;SDS011;62915;50.832;4.462;2023-05-10T09:37:33;9.50;;;6.05;;
23680;SDS011;62915;50.832;4.462;2023-05-10T09:39:58;6.78;;;5.20;;
23680;SDS011;62915;50.832;4.462;2023-05-10T09:42:24;9.10;;;5.70;;
23680;SDS011;62915;50.832;4.462;2023-05-10T09:44:50;9.45;;;6.03;;
23680;SDS011;62915;50.832;4.462;2023-05-10T09:47:19;9.80;;;6.10;;
23680;SDS011;62915;50.832;4.462;2023-05-10T09:49:49;10.18;;;6.03;;
23680;SDS011;62915;50.832;4.462;2023-05-10T09:52:16;9.35;;;5.75;;
23680;SDS011;62915;50.832;4.462;2023-05-10T09:54:45;8.13;;;5.65;;
23680;SDS011;62915;50.832;4.462;2023-05-10T09:57:18;6.75;;;5.38;;
23680;SDS011;62915;50.832;4.462;2023-05-10T09:59:47;10.20;;;5.43;;
23680;SDS011;62915;50.832;4.462;2023-05-10T10:02:13;5.05;;;4.50;;
23680;SDS011;62915;50.832;4.462;2023-05-10T10:04:39;5.88;;;4.47;;
23680;SDS011;62915;50.832;4.462;2023-05-10T10:07:06;4.90;;;3.70;;
23680;SDS011;62915;50.832;4.462;2023-05-10T10:09:32;7.05;;;4.05;;
23680;SDS011;62915;50.832;4.462;2023-05-10T10:11:59;4.55;;;3.78;;
23680;SDS011;62915;50.832;4.462;2023-05-10T10:14:27;6.80;;;3.90;;
23680;SDS011;62915;50.832;4.462;2023-05-10T10:16:53;4.38;;;3.70;;
23680;SDS011;62915;50.832;4.462;2023-05-10T10:19:20;5.65;;;3.63;;
23680;SDS011;62915;50.832;4.462;2023-05-10T10:21:47;4.78;;;3.75;;
23680;SDS011;62915;50.832;4.462;2023-05-10T10:24:13;6.30;;;3.72;;
23680;SDS011;62915;50.832;4.462;2023-05-10T10:26:39;4.32;;;3.28;;
23680;SDS011;62915;50.832;4.462;2023-05-10T10:29:31;3.53;;;3.05;;
23680;SDS011;62915;50.832;4.462;2023-05-10T10:35:12;4.55;;;4.13;;
23680;SDS011;62915;50.832;4.462;2023-05-10T10:37:42;4.82;;;3.08;;
23680;SDS011;62915;50.832;4.462;2023-05-10T10:42:56;3.60;;;3.10;;
23680;SDS011;62915;50.832;4.462;2023-05-10T10:45:23;5.43;;;3.00;;
23680;SDS011;62915;50.832;4.462;2023-05-10T10:48:35;3.30;;;2.92;;
23680;SDS011;62915;50.832;4.462;2023-05-10T10:50:45;3.38;;;2.80;;
23680;SDS011;62915;50.832;4.462;2023-05-10T10:53:11;3.35;;;3.05;;
23680;SDS011;62915;50.832;4.462;2023-05-10T10:55:47;4.10;;;3.10;;
23680;SDS011;62915;50.832;4.462;2023-05-10T10:58:28;3.60;;;3.30;;
23680;SDS011;62915;50.832;4.462;2023-05-10T11:01:14;8.32;;;3.22;;
23680;SDS011;62915;50.832;4.462;2023-05-10T11:03:54;4.88;;;3.65;;
23680;SDS011;62915;50.832;4.462;2023-05-10T11:06:40;5.22;;;3.63;;
23680;SDS011;62915;50.832;4.462;2023-05-10T11:09:08;4.68;;;3.72;;
23680;SDS011;62915;50.832;4.462;2023-05-10T11:11:36;4.28;;;3.83;;
23680;SDS011;62915;50.832;4.462;2023-05-10T11:14:19;6.90;;;4.28;;
23680;SDS011;62915;50.832;4.462;2023-05-10T11:16:47;4.90;;;4.20;;
23680;SDS011;62915;50.832;4.462;2023-05-10T11:19:13;4.82;;;3.83;;
23680;SDS011;62915;50.832;4.462;2023-05-10T11:22:23;6.85;;;4.38;;
23680;SDS011;62915;50.832;4.462;2023-05-10T11:24:29;6.35;;;4.53;;
23680;SDS011;62915;50.832;4.462;2023-05-10T11:26:55;7.15;;;4.22;;
23680;SDS011;62915;50.832;4.462;2023-05-10T11:29:21;5.07;;;3.97;;
23680;SDS011;62915;50.832;4.462;2023-05-10T11:31:48;5.80;;;4.65;;
23680;SDS011;62915;50.832;4.462;2023-05-10T11:34:24;5.72;;;4.80;;
23680;SDS011;62915;50.832;4.462;2023-05-10T11:36:52;7.70;;;4.70;;
23680;SDS011;62915;50.832;4.462;2023-05-10T11:39:19;5.82;;;4.55;;
23680;SDS011;62915;50.832;4.462;2023-05-10T11:41:48;5.72;;;4.93;;
23680;SDS011;62915;50.832;4.462;2023-05-10T11:44:14;6.30;;;4.55;;
23680;SDS011;62915;50.832;4.462;2023-05-10T11:46:40;6.35;;;4.20;;
23680;SDS011;62915;50.832;4.462;2023-05-10T11:49:06;5.43;;;4.47;;
23680;SDS011;62915;50.832;4.462;2023-05-10T11:51:33;5.15;;;4.53;;
23680;SDS011;62915;50.832;4.462;2023-05-10T11:54:07;6.68;;;4.65;;
23680;SDS011;62915;50.832;4.462;2023-05-10T11:56:34;4.53;;;4.03;;
23680;SDS011;62915;50.832;4.462;2023-05-10T11:59:01;5.75;;;4.32;;
23680;SDS011;62915;50.832;4.462;2023-05-10T12:01:28;6.03;;;4.18;;
23680;SDS011;62915;50.832;4.462;2023-05-10T12:03:54;5.50;;;4.40;;
23680;SDS011;62915;50.832;4.462;2023-05-10T12:06:31;5.28;;;4.20;;
23680;SDS011;62915;50.832;4.462;2023-05-10T12:09:01;6.80;;;3.92;;
23680;SDS011;62915;50.832;4.462;2023-05-10T12:11:31;6.60;;;3.95;;
23680;SDS011;62915;50.832;4.462;2023-05-10T12:14:03;8.25;;;4.28;;
23680;SDS011;62915;50.832;4.462;2023-05-10T12:16:29;4.30;;;3.88;;
23680;SDS011;62915;50.832;4.462;2023-05-10T12:18:56;7.88;;;3.83;;
23680;SDS011;62915;50.832;4.462;2023-05-10T12:21:24;5.38;;;3.85;;
23680;SDS011;62915;50.832;4.462;2023-05-10T12:23:51;5.60;;;3.97;;
23680;SDS011;62915;50.832;4.462;2023-05-10T12:26:18;3.60;;;3.30;;
23680;SDS011;62915;50.832;4.462;2023-05-10T12:28:47;5.78;;;3.75;;
23680;SDS011;62915;50.832;4.462;2023-05-10T12:31:12;5.03;;;4.03;;
23680;SDS011;62915;50.832;4.462;2023-05-10T12:33:39;5.05;;;3.78;;
23680;SDS011;62915;50.832;4.462;2023-05-10T12:36:09;4.53;;;3.55;;
23680;SDS011;62915;50.832;4.462;2023-05-10T12:38:45;5.57;;;4.15;;
23680;SDS011;62915;50.832;4.462;2023-05-10T12:41:14;3.90;;;3.50;;
23680;SDS011;62915;50.832;4.462;2023-05-10T12:43:41;4.75;;;3.65;;
23680;SDS011;62915;50.832;4.462;2023-05-10T12:46:07;6.53;;;4.00;;
23680;SDS011;62915;50.832;4.462;2023-05-10T12:48:34;4.88;;;3.92;;
23680;SDS011;62915;50.832;4.462;2023-05-10T12:51:01;5.03;;;4.03;;
23680;SDS011;62915;50.832;4.462;2023-05-10T12:53:28;5.47;;;3.97;;
23680;SDS011;62915;50.832;4.462;2023-05-10T12:55:54;4.20;;;3.80;;
23680;SDS011;62915;50.832;4.462;2023-05-10T12:58:20;4.72;;;3.78;;
23680;SDS011;62915;50.832;4.462;2023-05-10T13:00:45;4.75;;;4.25;;
23680;SDS011;62915;50.832;4.462;2023-05-10T13:03:12;4.65;;;4.15;;
23680;SDS011;62915;50.832;4.462;2023-05-10T13:05:37;5.35;;;4.68;;
23680;SDS011;62915;50.832;4.462;2023-05-10T13:08:03;5.80;;;4.90;;
23680;SDS011;62915;50.832;4.462;2023-05-10T13:10:30;5.70;;;4.40;;
23680;SDS011;62915;50.832;4.462;2023-05-10T13:12:57;5.75;;;4.88;;
23680;SDS011;62915;50.832;4.462;2023-05-10T13:15:23;8.05;;;5.38;;
23680;SDS011;62915;50.832;4.462;2023-05-10T13:17:50;7.80;;;5.40;;
23680;SDS011;62915;50.832;4.462;2023-05-10T13:20:16;7.07;;;5.82;;
23680;SDS011;62915;50.832;4.462;2023-05-10T13:22:42;8.15;;;4.95;;
23680;SDS011;62915;50.832;4.462;2023-05-10T13:25:08;7.25;;;5.97;;
23680;SDS011;62915;50.832;4.462;2023-05-10T13:27:34;6.78;;;5.45;;
23680;SDS011;62915;50.832;4.462;2023-05-10T13:30:00;7.68;;;5.65;;
23680;SDS011;62915;50.832;4.462;2023-05-10T13:32:28;9.35;;;5.78;;
23680;SDS011;62915;50.832;4.462;2023-05-10T13:34:54;7.57;;;5.20;;
23680;SDS011;62915;50.832;4.462;2023-05-10T13:37:20;6.20;;;5.47;;
23680;SDS011;62915;50.832;4.462;2023-05-10T13:39:46;6.68;;;5.30;;
23680;SDS011;62915;50.832;4.462;2023-05-10T13:42:12;7.78;;;5.43;;
23680;SDS011;62915;50.832;4.462;2023-05-10T13:44:38;8.35;;;5.43;;
23680;SDS011;62915;50.832;4.462;2023-05-10T13:47:04;9.63;;;5.35;;
23680;SDS011;62915;50.832;4.462;2023-05-10T13:49:30;5.68;;;4.63;;
23680;SDS011;62915;50.832;4.462;2023-05-10T13:51:56;6.28;;;4.75;;
23680;SDS011;62915;50.832;4.462;2023-05-10T13:54:22;4.22;;;3.70;;
23680;SDS011;62915;50.832;4.462;2023-05-10T13:56:48;6.88;;;3.92;;
23680;SDS011;62915;50.832;4.462;2023-05-10T13:59:14;5.97;;;4.25;;
23680;SDS011;62915;50.832;4.462;2023-05-10T14:01:40;5.88;;;4.28;;
23680;SDS011;62915;50.832;4.462;2023-05-10T14:04:07;7.10;;;4.95;;
23680;SDS011;62915;50.832;4.462;2023-05-10T14:06:35;13.52;;;6.63;;
23680;SDS011;62915;50.832;4.462;2023-05-10T14:09:01;10.93;;;9.00;;
23680;SDS011;62915;50.832;4.462;2023-05-10T14:11:30;10.82;;;7.85;;
23680;SDS011;62915;50.832;4.462;2023-05-10T14:13:56;9.95;;;6.20;;
23680;SDS011;62915;50.832;4.462;2023-05-10T14:16:21;10.20;;;6.53;;
23680;SDS011;62915;50.832;4.462;2023-05-10T14:18:47;8.75;;;5.78;;
23680;SDS011;62915;50.832;4.462;2023-05-10T14:21:13;15.50;;;6.68;;
23680;SDS011;62915;50.832;4.462;2023-05-10T14:23:39;21.00;;;7.55;;
23680;SDS011;62915;50.832;4.462;2023-05-10T14:26:05;11.15;;;7.45;;
23680;SDS011;62915;50.832;4.462;2023-05-10T14:28:31;12.60;;;7.72;;
23680;SDS011;62915;50.832;4.462;2023-05-10T14:30:57;12.95;;;8.13;;
23680;SDS011;62915;50.832;4.462;2023-05-10T14:33:24;13.65;;;8.75;;
23680;SDS011;62915;50.832;4.462;2023-05-10T14:35:50;14.07;;;8.73;;
23680;SDS011;62915;50.832;4.462;2023-05-10T14:38:15;14.50;;;9.00;;
23680;SDS011;62915;50.832;4.462;2023-05-10T14:40:41;12.52;;;9.25;;
23680;SDS011;62915;50.832;4.462;2023-05-10T14:43:08;16.70;;;9.43;;
23680;SDS011;62915;50.832;4.462;2023-05-10T14:45:34;15.43;;;9.77;;
23680;SDS011;62915;50.832;4.462;2023-05-10T14:48:00;15.75;;;9.40;;
23680;SDS011;62915;50.832;4.462;2023-05-10T14:50:29;13.70;;;10.32;;
23680;SDS011;62915;50.832;4.462;2023-05-10T14:52:55;16.13;;;10.65;;
23680;SDS011;62915;50.832;4.462;2023-05-10T14:55:21;15.65;;;10.63;;
23680;SDS011;62915;50.832;4.462;2023-05-10T14:57:47;16.50;;;11.10;;
23680;SDS011;62915;50.832;4.462;2023-05-10T15:00:15;15.10;;;10.93;;
23680;SDS011;62915;50.832;4.462;2023-05-10T15:02:41;16.85;;;11.25;;
23680;SDS011;62915;50.832;4.462;2023-05-10T15:05:07;18.67;;;11.73;;
23680;SDS011;62915;50.832;4.462;2023-05-10T15:07:33;19.13;;;11.90;;
23680;SDS011;62915;50.832;4.462;2023-05-10T15:09:58;19.13;;;12.60;;